الصفحة الرئيسية
METAR-TAF:

METAR-TAF

مطار :

Surat Thani, تايلاند

دائرة عرض: 09-07N, خط طول: 099-21E, ارتفاع: 10 متر

مراقبة الطقس الحالي

تاريخ ووقت الإصدار 2ساعات و 43 دقيقة قبل الساعة 15:00UTC
رياح هادئة
درجة الحرارة 24°درجة مئوية
الرطوبة 94%
ضغط 1013 hPa
الرؤية: 8000 متر
غيوم متفرقة على ارتفاع 2000 قدم

METAR: VTSB 211500Z 00000KT 8000 SCT020 24/23 Q1013 NOSIG

زمن: 00:43 (17:43 UTC)

توقعات

تاريخ ووقت الإصدار 43 دقيقة قبل الساعة 17:00UTC
التوقعات صالحة من21 الساعة 18 UTC إلى 22 الساعة 18 UTC
ريح 2 عقدةمن اتجاهات متغيرة
الرؤية 10 كم أو أكثر
غيوم قليلة على ارتفاع 2000 قدم
مؤقت
من 22 الساعة 06 UTC إلى 22 الساعة 12 UTC
ريح 15 عقدةمن اتجاهات متغيرة تتزايد حتى 25 عقدة
الرؤية: 4000 متر
غيوم قليلة على ارتفاع 1600 قدم, مزنة ركامية.
غيوم متفرقة على ارتفاع 1800 قدم
غيوم مفككة على ارتفاع 10000 قدم
عاصفة رعدية, مطر

TAF: VTSB 211700Z 2118/2218 VRB02KT 9999 FEW020 TEMPO 2206/2212 VRB15G25KT 4000 TSRA FEW016CB SCT018 BKN100

أرصاد الطقس والتوقعات من أكثر من 4000 مطار (تقارير الطقس للمطار METAR والتنبؤ بالطقس بالمطارTAF).

المحطات المتاحة هي النقط الصفراء والحمراء على الخريطة.

حرك المؤشر فوق النقطة لمعرفة اسم المحطة.

ثم انقر لمعرفة أرصاد وتوقعات الطقس.

لتغيير الخارطة: اضغط على الأزرار الخضراء مع رمز الصليب الأسود للتكبير. على الزر الأخضر مع شرطة للتصغير، أو على الأسهم الخضراء للخرائط المجاورة.


METAR-TAF: